createdAt,value
2022-10-17T00:00:18.135Z,100303.16
2022-10-17T00:02:44.646Z,100302.97
2022-10-17T00:05:12.148Z,100307.88
2022-10-17T00:07:39.207Z,100303.31
2022-10-17T00:10:07.299Z,100305.81
2022-10-17T00:12:34.601Z,100292.44
2022-10-17T00:15:03.963Z,100296.19
2022-10-17T00:17:31.541Z,100293.88
2022-10-17T00:20:01.661Z,100294.50
2022-10-17T00:22:28.499Z,100286.06
2022-10-17T00:24:55.072Z,100297.38
2022-10-17T00:27:21.624Z,100294.94
2022-10-17T00:29:49.917Z,100288.34
2022-10-17T00:32:16.917Z,100289.59
2022-10-17T00:34:43.671Z,100302.16
2022-10-17T00:37:10.515Z,100294.22
2022-10-17T00:39:37.176Z,100292.63
2022-10-17T00:42:03.957Z,100295.59
2022-10-17T00:44:30.588Z,100289.59
2022-10-17T00:46:59.231Z,100287.19
2022-10-17T00:49:28.747Z,100291.91
2022-10-17T00:51:59.261Z,100287.19
2022-10-17T00:54:33.539Z,100289.50
2022-10-17T00:57:00.732Z,100286.38
2022-10-17T00:59:28.547Z,100291.31
2022-10-17T01:02:06.609Z,100287.03
2022-10-17T01:04:33.141Z,100285.69
2022-10-17T01:06:59.685Z,100279.78
2022-10-17T01:09:27.297Z,100278.25
2022-10-17T01:12:03.752Z,100283.94
2022-10-17T01:14:40.602Z,100283.75
2022-10-17T01:17:34.089Z,100281.59
2022-10-17T01:20:19.547Z,100277.94
2022-10-17T01:23:01.072Z,100276.16
2022-10-17T01:25:49.121Z,100271.31
2022-10-17T01:28:54.435Z,100269.13
2022-10-17T01:31:25.864Z,100263.66
2022-10-17T01:34:17.107Z,100266.63
2022-10-17T01:36:52.221Z,100263.97
2022-10-17T01:39:32.528Z,100269.31
2022-10-17T01:42:27.864Z,100271.06
2022-10-17T01:44:57.524Z,100272.47
2022-10-17T01:47:29.610Z,100266.50
2022-10-17T01:50:02.840Z,100275.03
2022-10-17T01:52:37.001Z,100267.13
2022-10-17T01:55:09.551Z,100273.34
2022-10-17T01:57:40.881Z,100268.44
2022-10-17T02:00:13.721Z,100265.91
2022-10-17T02:02:43.296Z,100268.44
2022-10-17T02:05:10.226Z,100277.34
2022-10-17T02:07:36.797Z,100272.50
2022-10-17T02:10:09.951Z,100271.00
2022-10-17T02:12:54.297Z,100280.44
2022-10-17T02:15:32.459Z,100268.84
2022-10-17T02:18:14.187Z,100283.53
2022-10-17T02:20:52.028Z,100282.72
2022-10-17T02:23:30.481Z,100280.22
2022-10-17T02:26:16.642Z,100282.25
2022-10-17T02:28:47.500Z,100292.28
2022-10-17T02:31:20.158Z,100288.06
2022-10-17T02:33:54.679Z,100285.53
2022-10-17T02:36:26.592Z,100278.41
2022-10-17T02:38:55.198Z,100286.78
2022-10-17T02:41:24.521Z,100283.94
2022-10-17T02:43:53.086Z,100283.00
2022-10-17T02:46:23.115Z,100281.88
2022-10-17T02:49:22.001Z,100286.59
2022-10-17T02:52:12.985Z,100289.78
2022-10-17T02:54:51.298Z,100283.81
2022-10-17T02:57:25.103Z,100278.09
2022-10-17T02:59:52.407Z,100289.59
2022-10-17T03:02:19.091Z,100292.22
2022-10-17T03:04:47.244Z,100291.06
2022-10-17T03:07:13.801Z,100289.47
2022-10-17T03:09:40.470Z,100293.34
2022-10-17T03:12:06.974Z,100293.47
2022-10-17T03:14:33.540Z,100286.78
2022-10-17T03:17:00.171Z,100299.78
2022-10-17T03:19:26.683Z,100291.06
2022-10-17T03:21:53.438Z,100301.41
2022-10-17T03:24:19.965Z,100301.03
2022-10-17T03:29:17.932Z,100312.31
2022-10-17T03:31:44.488Z,100323.25
2022-10-17T03:34:11.060Z,100326.34
2022-10-17T03:36:37.647Z,100320.81
2022-10-17T03:39:04.257Z,100319.56
2022-10-17T03:41:30.781Z,100318.22
2022-10-17T03:43:57.298Z,100311.75
2022-10-17T03:46:23.852Z,100312.69
2022-10-17T03:48:50.410Z,100308.44
2022-10-17T03:51:16.975Z,100321.06
2022-10-17T03:53:43.484Z,100319.78
2022-10-17T03:56:22.066Z,100320.69
2022-10-17T03:58:48.894Z,100330.03
2022-10-17T04:01:17.142Z,100332.22
2022-10-17T04:03:44.311Z,100336.38
2022-10-17T04:06:12.784Z,100342.59
2022-10-17T04:08:39.963Z,100337.97
2022-10-17T04:11:08.450Z,100340.03
2022-10-17T04:13:35.827Z,100346.03
2022-10-17T04:16:05.273Z,100353.72
2022-10-17T04:18:32.365Z,100352.00
2022-10-17T04:21:01.798Z,100350.38
2022-10-17T04:23:28.460Z,100352.22
2022-10-17T04:25:59.309Z,100353.13
2022-10-17T04:28:27.590Z,100352.00
2022-10-17T04:31:11.922Z,100359.91
2022-10-17T04:33:38.808Z,100352.44
2022-10-17T04:36:08.350Z,100360.28
2022-10-17T04:38:34.951Z,100365.34
2022-10-17T04:41:03.678Z,100355.78
2022-10-17T04:43:31.568Z,100369.44
2022-10-17T04:46:02.499Z,100366.22
2022-10-17T04:48:29.814Z,100366.09
2022-10-17T04:51:02.036Z,100370.47
2022-10-17T04:53:30.563Z,100372.19
2022-10-17T04:55:57.371Z,100372.19
2022-10-17T04:58:24.536Z,100365.19
2022-10-17T05:00:51.192Z,100371.53
2022-10-17T05:03:17.859Z,100368.31
2022-10-17T05:05:44.411Z,100371.28
2022-10-17T05:08:11.765Z,100373.47
2022-10-17T05:10:39.769Z,100374.50
2022-10-17T05:13:07.276Z,100378.84
2022-10-17T05:15:34.163Z,100375.63
2022-10-17T05:18:00.863Z,100386.44
2022-10-17T05:20:27.799Z,100383.00
2022-10-17T05:22:54.616Z,100382.09
2022-10-17T05:25:21.863Z,100387.25
2022-10-17T05:27:48.437Z,100390.13
2022-10-17T05:30:14.967Z,100381.16
2022-10-17T05:32:41.597Z,100393.13
2022-10-17T05:35:08.271Z,100394.25
2022-10-17T05:37:34.921Z,100398.28
2022-10-17T05:40:01.748Z,100407.47
2022-10-17T05:42:28.743Z,100412.66
2022-10-17T05:44:55.473Z,100425.78
2022-10-17T05:47:22.064Z,100430.13
2022-10-17T05:49:52.337Z,100426.25
2022-10-17T05:52:19.286Z,100435.78
2022-10-17T05:54:45.960Z,100432.66
2022-10-17T05:57:12.687Z,100450.38
2022-10-17T05:59:39.253Z,100441.63
2022-10-17T06:02:05.984Z,100448.75
2022-10-17T06:04:32.694Z,100448.91
2022-10-17T06:06:59.223Z,100460.25
2022-10-17T06:09:25.743Z,100452.25
2022-10-17T06:11:52.420Z,100458.81
2022-10-17T06:14:18.929Z,100462.84
2022-10-17T06:16:45.476Z,100460.88
2022-10-17T06:19:12.096Z,100469.06
2022-10-17T06:21:39.163Z,100466.09
2022-10-17T06:24:06.085Z,100470.13
2022-10-17T06:26:32.699Z,100473.69
2022-10-17T06:28:59.300Z,100475.28
2022-10-17T06:31:25.895Z,100481.47
2022-10-17T06:33:52.478Z,100481.59
2022-10-17T06:36:19.322Z,100491.16
2022-10-17T06:38:46.062Z,100490.69
2022-10-17T06:41:14.689Z,100489.31
2022-10-17T06:43:48.564Z,100484.03
2022-10-17T06:46:17.781Z,100484.34
2022-10-17T06:48:44.859Z,100499.41
2022-10-17T06:51:12.540Z,100499.00
2022-10-17T06:53:40.504Z,100509.19
2022-10-17T06:56:08.476Z,100508.38
2022-10-17T06:58:39.076Z,100509.56
2022-10-17T07:03:36.458Z,100518.97
2022-10-17T07:06:03.476Z,100517.41
2022-10-17T07:08:30.020Z,100518.13
2022-10-17T07:10:57.300Z,100514.94
2022-10-17T07:13:24.328Z,100516.56
2022-10-17T07:15:51.087Z,100520.75
2022-10-17T07:18:17.679Z,100522.34
2022-10-17T07:20:44.201Z,100529.50
2022-10-17T07:23:10.702Z,100524.63
2022-10-17T07:25:40.041Z,100527.41
2022-10-17T07:28:06.916Z,100522.38
2022-10-17T07:30:33.470Z,100529.22
2022-10-17T07:33:00.246Z,100531.75
2022-10-17T07:35:26.800Z,100528.19
2022-10-17T07:37:53.378Z,100532.25
2022-10-17T07:40:20.045Z,100542.63
2022-10-17T07:42:46.728Z,100545.78
2022-10-17T07:45:13.386Z,100537.00
2022-10-17T07:47:39.913Z,100533.53
2022-10-17T07:50:06.834Z,100540.31
2022-10-17T07:52:33.401Z,100538.69
2022-10-17T07:55:00.170Z,100543.91
2022-10-17T07:57:26.731Z,100542.47
2022-10-17T07:59:54.506Z,100549.34
2022-10-17T08:02:25.858Z,100548.06
2022-10-17T08:04:53.160Z,100540.06
2022-10-17T08:07:24.090Z,100541.78
2022-10-17T08:09:53.567Z,100545.34
2022-10-17T08:12:20.459Z,100549.16
2022-10-17T08:14:48.159Z,100553.44
2022-10-17T08:17:14.764Z,100551.44
2022-10-17T08:19:41.375Z,100556.00
2022-10-17T08:22:08.403Z,100542.19
2022-10-17T08:24:35.007Z,100552.50
2022-10-17T08:27:01.793Z,100546.63
2022-10-17T08:29:28.471Z,100551.81
2022-10-17T08:32:00.893Z,100554.28
2022-10-17T08:34:28.569Z,100552.34
2022-10-17T08:36:55.191Z,100562.41
2022-10-17T08:39:21.998Z,100560.31
2022-10-17T08:42:16.416Z,100555.53
2022-10-17T08:44:57.693Z,100551.91
2022-10-17T08:47:29.413Z,100555.44
2022-10-17T08:50:03.192Z,100556.47
2022-10-17T08:52:38.005Z,100553.19
2022-10-17T08:55:13.431Z,100552.69
2022-10-17T08:57:41.204Z,100549.28
2022-10-17T09:00:17.112Z,100547.44
2022-10-17T09:03:09.693Z,100544.44
2022-10-17T09:05:45.632Z,100552.22
2022-10-17T09:08:41.931Z,100560.41
2022-10-17T09:11:34.182Z,100552.94
2022-10-17T09:14:27.396Z,100546.28
2022-10-17T09:17:15.611Z,100553.56
2022-10-17T09:19:52.886Z,100557.16
2022-10-17T09:22:24.898Z,100572.00
2022-10-17T09:24:57.298Z,100562.00
2022-10-17T09:27:28.150Z,100563.97
2022-10-17T09:30:26.832Z,100570.34
2022-10-17T09:33:00.656Z,100571.13
2022-10-17T09:35:28.453Z,100574.72
2022-10-17T09:37:55.237Z,100563.06
2022-10-17T09:40:27.586Z,100573.84
2022-10-17T09:42:54.181Z,100571.81
2022-10-17T09:45:30.726Z,100570.56
2022-10-17T09:48:09.129Z,100567.78
2022-10-17T09:50:36.471Z,100571.69
2022-10-17T09:53:29.461Z,100562.38
2022-10-17T09:56:02.944Z,100573.88
2022-10-17T09:58:50.842Z,100575.03
2022-10-17T10:01:24.497Z,100568.16
2022-10-17T10:04:11.665Z,100567.66
2022-10-17T10:06:40.417Z,100567.94
2022-10-17T10:11:56.693Z,100568.41
2022-10-17T10:14:35.860Z,100567.94
2022-10-17T10:17:05.091Z,100581.25
2022-10-17T10:19:33.802Z,100574.78
2022-10-17T10:22:02.874Z,100574.78
2022-10-17T10:24:31.207Z,100573.88
2022-10-17T10:27:01.564Z,100571.00
2022-10-17T10:29:34.255Z,100575.97
2022-10-17T10:32:11.790Z,100580.72
2022-10-17T10:34:47.569Z,100576.97
2022-10-17T10:37:28.542Z,100563.66
2022-10-17T10:39:58.519Z,100568.44
2022-10-17T10:42:32.457Z,100567.03
2022-10-17T10:45:43.249Z,100570.97
2022-10-17T10:48:30.759Z,100571.34
2022-10-17T10:51:06.359Z,100557.38
2022-10-17T10:54:05.677Z,100556.28
2022-10-17T10:56:43.773Z,100550.16
2022-10-17T10:59:14.165Z,100548.38
2022-10-17T11:01:43.716Z,100552.44
2022-10-17T11:05:07.870Z,100553.19
2022-10-17T11:08:03.512Z,100557.78
2022-10-17T11:10:51.201Z,100560.16
2022-10-17T11:13:26.470Z,100560.00
2022-10-17T11:16:22.499Z,100555.09
2022-10-17T11:18:53.436Z,100553.47
2022-10-17T11:21:38.557Z,100555.53
2022-10-17T11:24:25.784Z,100549.63
2022-10-17T11:27:04.195Z,100550.06
2022-10-17T11:29:35.216Z,100563.22
2022-10-17T11:32:17.908Z,100556.88
2022-10-17T11:34:48.676Z,100550.19
2022-10-17T11:37:21.931Z,100550.91
2022-10-17T11:40:06.351Z,100545.94
2022-10-17T11:42:48.277Z,100546.22
2022-10-17T11:45:19.814Z,100539.16
2022-10-17T11:47:51.707Z,100537.69
2022-10-17T11:53:29.071Z,100542.34
2022-10-17T11:56:00.007Z,100544.31
2022-10-17T11:58:37.643Z,100546.28
2022-10-17T12:01:21.538Z,100545.47
2022-10-17T12:04:14.018Z,100540.94
2022-10-17T12:07:01.138Z,100533.72
2022-10-17T12:09:56.943Z,100541.75
2022-10-17T12:12:27.201Z,100536.84
2022-10-17T12:14:54.706Z,100529.03
2022-10-17T12:17:39.691Z,100528.53
2022-10-17T12:20:24.304Z,100531.41
2022-10-17T12:22:56.646Z,100534.88
2022-10-17T12:25:29.943Z,100532.81
2022-10-17T12:28:09.739Z,100517.22
2022-10-17T12:30:36.400Z,100524.78
2022-10-17T12:33:23.823Z,100521.97
2022-10-17T12:36:11.415Z,100520.66
2022-10-17T12:38:38.071Z,100517.03
2022-10-17T12:41:05.861Z,100523.50
2022-10-17T12:43:38.952Z,100513.88
2022-10-17T12:46:08.489Z,100517.78
2022-10-17T12:48:35.698Z,100517.47
2022-10-17T12:54:08.319Z,100519.88
2022-10-17T12:56:36.722Z,100517.84
2022-10-17T12:59:12.091Z,100510.50
2022-10-17T13:01:40.599Z,100521.06
2022-10-17T13:04:10.705Z,100508.25
2022-10-17T13:06:44.923Z,100514.66
2022-10-17T13:09:28.703Z,100505.53
2022-10-17T13:11:58.261Z,100508.34
2022-10-17T13:14:26.714Z,100513.97
2022-10-17T13:17:01.840Z,100503.47
2022-10-17T13:19:39.859Z,100502.38
2022-10-17T13:22:17.926Z,100504.47
2022-10-17T13:24:44.979Z,100505.00
2022-10-17T13:27:29.736Z,100504.75
2022-10-17T13:29:58.080Z,100498.47
2022-10-17T13:32:27.150Z,100493.75
2022-10-17T13:35:11.969Z,100497.91
2022-10-17T13:37:41.335Z,100498.31
2022-10-17T13:40:40.758Z,100504.22
2022-10-17T13:43:04.194Z,100492.13
2022-10-17T13:45:34.010Z,100497.88
2022-10-17T13:48:03.938Z,100494.34
2022-10-17T13:50:44.250Z,100498.41
2022-10-17T13:53:21.288Z,100495.56
2022-10-17T13:56:26.920Z,100498.03
2022-10-17T13:58:51.999Z,100504.13
2022-10-17T14:01:20.393Z,100502.16
2022-10-17T14:03:51.756Z,100502.28
2022-10-17T14:06:25.764Z,100513.56
2022-10-17T14:08:52.296Z,100507.19
2022-10-17T14:11:41.558Z,100508.03
2022-10-17T14:14:20.578Z,100512.16
2022-10-17T14:16:47.363Z,100510.63
2022-10-17T14:19:36.028Z,100511.47
2022-10-17T14:22:21.019Z,100506.72
2022-10-17T14:24:48.724Z,100505.25
2022-10-17T14:27:52.546Z,100510.22
2022-10-17T14:30:55.301Z,100510.72
2022-10-17T14:33:27.583Z,100518.38
2022-10-17T14:36:01.222Z,100520.47
2022-10-17T14:38:29.603Z,100520.13
2022-10-17T14:41:41.411Z,100513.78
2022-10-17T14:44:15.562Z,100521.06
2022-10-17T14:46:49.707Z,100512.31
2022-10-17T14:49:24.689Z,100515.97
2022-10-17T14:52:18.867Z,100519.66
2022-10-17T14:54:56.281Z,100517.28
2022-10-17T14:57:29.340Z,100519.72
2022-10-17T14:59:57.151Z,100514.19
2022-10-17T15:02:26.106Z,100511.81
2022-10-17T15:04:53.587Z,100504.25
2022-10-17T15:07:24.074Z,100505.47
2022-10-17T15:09:52.762Z,100508.69
2022-10-17T15:12:22.217Z,100507.13
2022-10-17T15:14:49.142Z,100516.75
2022-10-17T15:17:22.390Z,100521.59
2022-10-17T15:19:50.490Z,100520.00
2022-10-17T15:22:18.388Z,100514.00
2022-10-17T15:24:47.981Z,100518.81
2022-10-17T15:27:21.649Z,100507.25
2022-10-17T15:29:49.175Z,100511.63
2022-10-17T15:32:16.206Z,100514.03
2022-10-17T15:34:42.772Z,100519.19
2022-10-17T15:37:18.494Z,100515.16
2022-10-17T15:39:46.846Z,100515.91
2022-10-17T15:42:13.365Z,100521.00
2022-10-17T15:44:43.841Z,100515.41
2022-10-17T15:47:22.583Z,100514.94
2022-10-17T15:49:49.275Z,100515.31
2022-10-17T15:52:16.242Z,100525.25
2022-10-17T15:54:42.810Z,100522.00
2022-10-17T15:57:18.625Z,100527.09
2022-10-17T15:59:47.196Z,100527.03
2022-10-17T16:02:18.582Z,100524.88
2022-10-17T16:04:45.282Z,100524.84
2022-10-17T16:07:12.074Z,100533.50
2022-10-17T16:09:38.919Z,100527.50
2022-10-17T16:12:07.380Z,100529.44
2022-10-17T16:14:34.316Z,100529.00
2022-10-17T16:17:01.233Z,100537.25
2022-10-17T16:19:29.952Z,100538.75
2022-10-17T16:22:04.342Z,100534.69
2022-10-17T16:24:31.264Z,100542.56
2022-10-17T16:26:57.987Z,100540.88
2022-10-17T16:29:24.522Z,100542.41
2022-10-17T16:31:51.089Z,100547.97
2022-10-17T16:34:17.693Z,100553.06
2022-10-17T16:36:44.322Z,100554.63
2022-10-17T16:39:11.016Z,100553.78
2022-10-17T16:41:39.288Z,100556.91
2022-10-17T16:44:11.260Z,100554.91
2022-10-17T16:46:38.073Z,100557.22
2022-10-17T16:49:05.965Z,100567.53
2022-10-17T16:51:35.974Z,100562.31
2022-10-17T16:54:04.519Z,100562.56
2022-10-17T16:56:32.714Z,100568.97
2022-10-17T16:59:00.781Z,100567.69
2022-10-17T17:01:29.395Z,100566.03
2022-10-17T17:03:56.809Z,100571.91
2022-10-17T17:06:26.895Z,100574.34
2022-10-17T17:08:54.617Z,100579.72
2022-10-17T17:11:24.517Z,100559.00
2022-10-17T17:13:51.119Z,100565.41
2022-10-17T17:16:23.359Z,100566.88
2022-10-17T17:18:54.575Z,100569.06
2022-10-17T17:21:21.072Z,100563.88
2022-10-17T17:23:47.940Z,100572.09
2022-10-17T17:26:17.395Z,100554.47
2022-10-17T17:28:44.272Z,100558.81
2022-10-17T17:31:14.137Z,100564.75
2022-10-17T17:33:42.030Z,100573.44
2022-10-17T17:36:12.273Z,100567.41
2022-10-17T17:38:41.210Z,100570.94
2022-10-17T17:41:07.732Z,100573.28
2022-10-17T17:43:35.776Z,100575.19
2022-10-17T17:46:05.028Z,100577.56
2022-10-17T17:48:31.690Z,100572.72
2022-10-17T17:51:02.704Z,100570.66
2022-10-17T17:53:29.302Z,100576.13
2022-10-17T17:56:10.976Z,100577.25
2022-10-17T17:58:37.635Z,100579.16
2022-10-17T18:01:14.353Z,100585.47
2022-10-17T18:03:41.790Z,100578.28
2022-10-17T18:06:08.993Z,100583.72
2022-10-17T18:08:36.067Z,100580.09
2022-10-17T18:11:03.331Z,100582.34
2022-10-17T18:13:30.079Z,100569.97
2022-10-17T18:16:01.413Z,100567.50
2022-10-17T18:18:29.823Z,100565.78
2022-10-17T18:20:56.687Z,100570.09
2022-10-17T18:23:23.929Z,100570.78
2022-10-17T18:25:58.716Z,100579.84
2022-10-17T18:28:25.434Z,100577.44
2022-10-17T18:30:52.216Z,100577.75
2022-10-17T18:33:18.863Z,100577.34
2022-10-17T18:35:45.797Z,100577.78
2022-10-17T18:38:12.496Z,100579.78
2022-10-17T18:40:39.018Z,100576.63
2022-10-17T18:43:05.556Z,100580.13
2022-10-17T18:45:32.164Z,100577.22
2022-10-17T18:47:58.867Z,100571.75
2022-10-17T18:50:25.829Z,100578.09
2022-10-17T18:52:52.346Z,100580.25
2022-10-17T18:55:19.793Z,100579.44
2022-10-17T18:57:50.068Z,100580.25
2022-10-17T19:00:17.773Z,100577.47
2022-10-17T19:02:44.502Z,100577.91
2022-10-17T19:05:11.067Z,100575.00
2022-10-17T19:07:37.582Z,100565.81
2022-10-17T19:10:04.328Z,100565.72
2022-10-17T19:12:31.011Z,100561.28
2022-10-17T19:14:57.569Z,100565.97
2022-10-17T19:17:24.056Z,100562.56
2022-10-17T19:19:52.308Z,100566.34
2022-10-17T19:22:19.030Z,100568.69
2022-10-17T19:24:45.566Z,100563.25
2022-10-17T19:27:12.425Z,100563.59
2022-10-17T19:29:43.463Z,100554.19
2022-10-17T19:32:15.705Z,100554.09
2022-10-17T19:34:44.719Z,100553.97
2022-10-17T19:37:11.282Z,100556.31
2022-10-17T19:39:37.877Z,100548.25
2022-10-17T19:42:06.862Z,100545.78
2022-10-17T19:44:34.291Z,100541.81
2022-10-17T19:47:00.861Z,100546.66
2022-10-17T19:49:27.446Z,100545.53
2022-10-17T19:51:54.004Z,100539.28
2022-10-17T19:54:20.513Z,100535.84
2022-10-17T19:56:47.535Z,100539.50
2022-10-17T19:59:15.931Z,100544.41
2022-10-17T20:01:43.391Z,100543.75
2022-10-17T20:04:11.135Z,100543.38
2022-10-17T20:06:39.079Z,100549.88
2022-10-17T20:09:07.334Z,100549.97
2022-10-17T20:11:35.553Z,100556.00
2022-10-17T20:14:02.359Z,100556.19
2022-10-17T20:16:33.916Z,100546.09
2022-10-17T20:19:07.492Z,100548.50
2022-10-17T20:21:37.336Z,100548.13
2022-10-17T20:24:07.023Z,100553.19
2022-10-17T20:26:39.025Z,100541.41
2022-10-17T20:29:18.422Z,100541.72
2022-10-17T20:31:46.368Z,100541.00
2022-10-17T20:34:15.452Z,100548.25
2022-10-17T20:36:42.496Z,100542.72
2022-10-17T20:39:11.242Z,100546.16
2022-10-17T20:41:37.909Z,100551.25
2022-10-17T20:44:04.798Z,100546.69
2022-10-17T20:46:44.822Z,100547.13
2022-10-17T20:49:16.852Z,100548.06
2022-10-17T20:51:43.842Z,100552.16
2022-10-17T20:54:11.680Z,100556.03
2022-10-17T20:56:39.101Z,100545.38
2022-10-17T20:59:11.003Z,100556.03
2022-10-17T21:01:37.612Z,100549.06
2022-10-17T21:06:52.218Z,100544.25
2022-10-17T21:09:19.398Z,100554.34
2022-10-17T21:11:46.041Z,100548.78
2022-10-17T21:14:12.706Z,100556.78
2022-10-17T21:16:40.282Z,100559.38
2022-10-17T21:19:07.128Z,100552.91
2022-10-17T21:21:36.241Z,100547.22
2022-10-17T21:24:05.737Z,100553.53
2022-10-17T21:26:34.235Z,100548.41
2022-10-17T21:29:05.474Z,100555.88
2022-10-17T21:31:33.774Z,100544.03
2022-10-17T21:34:04.998Z,100547.66
2022-10-17T21:36:31.527Z,100544.06
2022-10-17T21:38:58.436Z,100550.44
2022-10-17T21:41:27.689Z,100543.22
2022-10-17T21:44:01.318Z,100542.09
2022-10-17T21:46:28.939Z,100544.38
2022-10-17T21:48:56.197Z,100536.22
2022-10-17T21:51:24.535Z,100520.97
2022-10-17T21:53:52.668Z,100534.25
2022-10-17T21:56:22.078Z,100530.28
2022-10-17T21:58:50.048Z,100521.41
2022-10-17T22:01:19.462Z,100530.97
2022-10-17T22:03:52.425Z,100519.91
2022-10-17T22:09:20.742Z,100523.69
2022-10-17T22:11:49.136Z,100528.25
2022-10-17T22:14:18.584Z,100520.84
2022-10-17T22:16:46.536Z,100524.69
2022-10-17T22:19:16.031Z,100520.84
2022-10-17T22:21:42.693Z,100521.03
2022-10-17T22:24:13.859Z,100513.97
2022-10-17T22:26:40.828Z,100506.81
2022-10-17T22:29:08.500Z,100505.38
2022-10-17T22:31:36.284Z,100505.66
2022-10-17T22:34:05.117Z,100510.56
2022-10-17T22:36:32.529Z,100510.00
2022-10-17T22:38:59.128Z,100508.38
2022-10-17T22:41:25.686Z,100507.59
2022-10-17T22:43:52.268Z,100503.75
2022-10-17T22:46:18.910Z,100499.91
2022-10-17T22:48:45.482Z,100519.59
2022-10-17T22:51:12.270Z,100512.34
2022-10-17T22:53:39.201Z,100515.03
2022-10-17T22:56:09.379Z,100506.56
2022-10-17T22:58:35.916Z,100486.59
2022-10-17T23:01:03.948Z,100487.97
2022-10-17T23:03:31.419Z,100492.25
2022-10-17T23:05:58.740Z,100486.88
2022-10-17T23:08:26.262Z,100487.13
2022-10-17T23:10:53.179Z,100484.94
2022-10-17T23:13:21.404Z,100484.28
2022-10-17T23:15:56.319Z,100473.84
2022-10-17T23:18:24.613Z,100478.16
2022-10-17T23:20:51.673Z,100477.16
2022-10-17T23:23:18.947Z,100469.47
2022-10-17T23:25:45.956Z,100467.66
2022-10-17T23:28:12.685Z,100474.19
2022-10-17T23:30:39.979Z,100464.44
2022-10-17T23:33:06.969Z,100463.25
2022-10-17T23:35:34.182Z,100451.28
2022-10-17T23:38:00.679Z,100464.56
2022-10-17T23:40:28.070Z,100453.78
2022-10-17T23:42:56.216Z,100457.91
2022-10-17T23:45:22.895Z,100457.00
2022-10-17T23:47:49.547Z,100446.13
2022-10-17T23:50:16.464Z,100451.66
2022-10-17T23:52:43.505Z,100453.53
2022-10-17T23:55:10.723Z,100448.44
2022-10-17T23:57:37.239Z,100439.25
